Time,TemperatureF,DewpointF,PressureIn,WindDirection,WindDirectionDegrees,WindSpeedMPH,WindSpeedGustMPH,Humidity,HourlyPrecipIn,Conditions,Clouds,dailyrainin,SoftwareType,DateUTC
2013-12-20 08:30:00,79.0,71.6,30.00,NE,55,14.0,16.0,78,0.00,,,0.04,Wunderground v.1.15,2013-12-20 12:30:00,
2013-12-20 08:40:00,79.2,71.0,30.00,ENE,58,14.0,14.0,76,0.00,,,0.04,Wunderground v.1.15,2013-12-20 12:40:00,
2013-12-20 08:50:00,79.6,71.4,30.00,East,81,14.0,14.0,76,0.00,,,0.04,Wunderground v.1.15,2013-12-20 12:50:00,
2013-12-20 09:00:00,79.0,70.4,30.01,NE,55,11.0,11.0,75,0.00,,,0.04,Wunderground v.1.15,2013-12-20 13:00:00,
2013-12-20 09:10:00,79.4,71.2,30.01,East,84,12.0,13.0,76,0.00,,,0.04,Wunderground v.1.15,2013-12-20 13:10:00,
2013-12-20 09:20:00,80.7,71.6,30.01,East,84,11.0,16.0,74,0.00,,,0.04,Wunderground v.1.15,2013-12-20 13:20:00,
2013-12-20 09:30:00,81.1,72.0,30.01,East,83,12.0,12.0,74,0.00,,,0.04,Wunderground v.1.15,2013-12-20 13:30:00,
2013-12-20 09:40:00,81.1,72.8,30.02,ENE,62,11.0,14.0,76,0.00,,,0.04,Wunderground v.1.15,2013-12-20 13:40:00,
2013-12-20 09:50:00,80.9,72.6,30.02,East,89,10.0,10.0,76,0.00,,,0.04,Wunderground v.1.15,2013-12-20 13:50:00,
2013-12-20 10:00:00,81.1,71.2,30.03,ENE,72,13.0,13.0,72,0.00,,,0.04,Wunderground v.1.15,2013-12-20 14:00:00,
2013-12-20 10:10:00,81.8,71.1,30.02,ENE,62,14.0,14.0,70,0.00,,,0.04,Wunderground v.1.15,2013-12-20 14:10:00,
2013-12-20 10:20:00,81.1,70.0,30.02,ENE,78,15.0,15.0,69,0.00,,,0.04,Wunderground v.1.15,2013-12-20 14:20:00,
2013-12-20 10:30:00,81.8,71.1,30.03,East,82,15.0,15.0,70,0.00,,,0.04,Wunderground v.1.15,2013-12-20 14:30:00,
2013-12-20 10:40:00,80.7,70.8,30.02,ENE,71,15.0,23.0,72,0.00,,,0.04,Wunderground v.1.15,2013-12-20 14:40:00,
2013-12-20 10:50:00,76.7,68.2,30.02,East,88,13.0,15.0,75,0.00,,,0.04,Wunderground v.1.15,2013-12-20 14:50:00,
2013-12-20 11:00:00,79.8,70.0,30.03,SE,124,11.0,14.0,72,0.00,,,0.04,Wunderground v.1.15,2013-12-20 15:00:00,
2013-12-20 11:10:00,81.4,71.1,30.02,ENE,71,13.0,13.0,71,0.00,,,0.04,Wunderground v.1.15,2013-12-20 15:10:00,
2013-12-20 11:20:00,82.0,71.7,30.02,ENE,77,15.0,15.0,71,0.00,,,0.04,Wunderground v.1.15,2013-12-20 15:20:00,
2013-12-20 11:30:00,82.2,71.4,30.01,ENE,65,15.0,15.0,70,0.00,,,0.04,Wunderground v.1.15,2013-12-20 15:30:00,
2013-12-20 11:40:00,82.8,71.6,30.01,ENE,62,14.0,19.0,69,0.00,,,0.04,Wunderground v.1.15,2013-12-20 15:40:00,
2013-12-20 11:50:00,82.6,70.5,30.01,East,82,14.0,16.0,67,0.00,,,0.04,Wunderground v.1.15,2013-12-20 15:50:00,
2013-12-20 12:00:00,82.0,70.0,30.00,ENE,69,16.0,20.0,67,0.00,,,0.04,Wunderground v.1.15,2013-12-20 16:00:00,
2013-12-20 12:10:00,82.2,70.6,30.00,ENE,65,16.0,16.0,68,0.00,,,0.04,Wunderground v.1.15,2013-12-20 16:10:00,
2013-12-20 12:20:00,82.4,70.3,30.00,NE,49,16.0,16.0,67,0.00,,,0.04,Wunderground v.1.15,2013-12-20 16:20:00,
2013-12-20 12:30:00,82.8,70.7,29.99,ENE,75,13.0,13.0,67,0.00,,,0.04,Wunderground v.1.15,2013-12-20 16:30:00,
2013-12-20 12:40:00,82.8,70.7,29.98,ENE,69,14.0,16.0,67,0.00,,,0.04,Wunderground v.1.15,2013-12-20 16:40:00,
2013-12-20 12:50:00,82.4,70.3,29.98,ENE,74,16.0,16.0,67,0.00,,,0.04,Wunderground v.1.15,2013-12-20 16:50:00,